Allen, Maryland
Current Conditions -  °F | °C
As of 10:54 PM on Friday 31 Oct 2014 (Local Time) from KSBY Reporting Station
Overcast Overcast  
Wind Chill: 52°   Ceiling: 3100
Heat Index: 52°   Visibility: 10mi
Dew Point: 42°   Wind: 8mph
Humidity: 69%   Direction: 330°NNW
Pressure: 29.79"   Gusts: NA
Location:  38.29°N, 75.69°W
Report Text: KSBY 010254Z AUTO 33007KT 10SM OVC031 11/06 A2979 RMK AO2 SLP091 T01110056 56012
Loading
Personal Weather Stations






























Interactive Weather Map New forecast layout! Learn more

10-Day Weather Forecast

Advertisements
Track Severe Weather on mobile